Yushe, China
Current Conditions -  °F | °C
As of 9:30 PM on Monday 24 Nov 2014 (Local Time) from ZBYN Reporting Station
Haze Haze  
Wind Chill: 32°   Ceiling: Unl
Heat Index: 37°   Visibility: 2.5mi
Dew Point: 23°   Wind: 7mph
Humidity: 56%   Direction: 90°E
Pressure: 30.21"   Gusts: NA
Location:  37.07°N, 112.98°E
Report Text: ZBYN 241330Z 09003MPS 4000 HZ NSC 03/M05 Q1023 NOSIG
Loading
Personal Weather Stations






























Interactive Weather Map New forecast layout! Learn more

10-Day Weather Forecast

Advertisements
Track Severe Weather on mobile